sensor_id;sensor_type;location;lat;lon;timestamp;P1;durP1;ratioP1;P2;durP2;ratioP2
16177;SDS011;8195;51.220;9.746;2023-04-03T00:02:09;2.63;;;1.90;;
16177;SDS011;8195;51.220;9.746;2023-04-03T00:12:30;2.27;;;1.93;;
16177;SDS011;8195;51.220;9.746;2023-04-03T00:22:51;3.87;;;2.03;;
16177;SDS011;8195;51.220;9.746;2023-04-03T00:33:12;2.80;;;2.23;;
16177;SDS011;8195;51.220;9.746;2023-04-03T00:43:34;3.17;;;2.17;;
16177;SDS011;8195;51.220;9.746;2023-04-03T00:53:56;4.70;;;2.00;;
16177;SDS011;8195;51.220;9.746;2023-04-03T01:04:31;2.60;;;1.90;;
16177;SDS011;8195;51.220;9.746;2023-04-03T01:14:57;3.23;;;2.20;;
16177;SDS011;8195;51.220;9.746;2023-04-03T01:25:20;3.60;;;2.27;;
16177;SDS011;8195;51.220;9.746;2023-04-03T01:35:41;4.57;;;2.37;;
16177;SDS011;8195;51.220;9.746;2023-04-03T01:46:02;3.73;;;2.00;;
16177;SDS011;8195;51.220;9.746;2023-04-03T01:56:23;2.83;;;1.90;;
16177;SDS011;8195;51.220;9.746;2023-04-03T02:06:44;3.87;;;2.20;;
16177;SDS011;8195;51.220;9.746;2023-04-03T02:17:05;5.00;;;2.07;;
16177;SDS011;8195;51.220;9.746;2023-04-03T02:27:26;4.20;;;2.00;;
16177;SDS011;8195;51.220;9.746;2023-04-03T02:37:53;4.77;;;2.77;;
16177;SDS011;8195;51.220;9.746;2023-04-03T02:48:14;4.00;;;2.63;;
16177;SDS011;8195;51.220;9.746;2023-04-03T02:58:35;3.67;;;2.20;;
16177;SDS011;8195;51.220;9.746;2023-04-03T03:08:55;4.80;;;2.40;;
16177;SDS011;8195;51.220;9.746;2023-04-03T03:19:19;2.83;;;2.53;;
16177;SDS011;8195;51.220;9.746;2023-04-03T03:29:40;4.33;;;2.57;;
16177;SDS011;8195;51.220;9.746;2023-04-03T03:40:01;2.83;;;2.53;;
16177;SDS011;8195;51.220;9.746;2023-04-03T03:50:22;4.40;;;2.67;;
16177;SDS011;8195;51.220;9.746;2023-04-03T04:00:43;4.60;;;2.77;;
16177;SDS011;8195;51.220;9.746;2023-04-03T04:11:06;3.77;;;2.83;;
16177;SDS011;8195;51.220;9.746;2023-04-03T04:21:28;5.77;;;3.20;;
16177;SDS011;8195;51.220;9.746;2023-04-03T04:31:48;5.87;;;2.97;;
16177;SDS011;8195;51.220;9.746;2023-04-03T04:42:09;7.00;;;3.27;;
16177;SDS011;8195;51.220;9.746;2023-04-03T04:52:30;4.40;;;3.17;;
16177;SDS011;8195;51.220;9.746;2023-04-03T05:02:51;4.73;;;3.40;;
16177;SDS011;8195;51.220;9.746;2023-04-03T05:13:13;5.10;;;3.10;;
16177;SDS011;8195;51.220;9.746;2023-04-03T05:23:34;4.87;;;3.13;;
16177;SDS011;8195;51.220;9.746;2023-04-03T05:33:55;5.40;;;3.23;;
16177;SDS011;8195;51.220;9.746;2023-04-03T05:44:16;9.03;;;3.37;;
16177;SDS011;8195;51.220;9.746;2023-04-03T05:54:37;7.23;;;3.50;;
16177;SDS011;8195;51.220;9.746;2023-04-03T06:04:58;7.13;;;3.60;;
16177;SDS011;8195;51.220;9.746;2023-04-03T06:15:19;3.73;;;3.43;;
16177;SDS011;8195;51.220;9.746;2023-04-03T06:25:40;5.63;;;3.40;;
16177;SDS011;8195;51.220;9.746;2023-04-03T06:36:03;5.77;;;3.30;;
16177;SDS011;8195;51.220;9.746;2023-04-03T06:46:26;3.73;;;3.43;;
16177;SDS011;8195;51.220;9.746;2023-04-03T06:56:47;4.13;;;2.97;;
16177;SDS011;8195;51.220;9.746;2023-04-03T07:07:09;5.23;;;2.93;;
16177;SDS011;8195;51.220;9.746;2023-04-03T07:17:29;4.20;;;3.30;;
16177;SDS011;8195;51.220;9.746;2023-04-03T07:27:51;4.70;;;3.30;;
16177;SDS011;8195;51.220;9.746;2023-04-03T07:38:12;4.10;;;3.30;;
16177;SDS011;8195;51.220;9.746;2023-04-03T07:48:35;3.17;;;2.73;;
16177;SDS011;8195;51.220;9.746;2023-04-03T07:59:06;4.73;;;2.70;;
16177;SDS011;8195;51.220;9.746;2023-04-03T08:09:47;2.57;;;1.90;;
16177;SDS011;8195;51.220;9.746;2023-04-03T08:20:14;2.67;;;1.70;;
16177;SDS011;8195;51.220;9.746;2023-04-03T08:41:40;2.20;;;1.43;;
16177;SDS011;8195;51.220;9.746;2023-04-03T08:52:10;3.03;;;1.50;;
16177;SDS011;8195;51.220;9.746;2023-04-03T09:02:53;2.33;;;1.47;;
16177;SDS011;8195;51.220;9.746;2023-04-03T09:24:02;2.67;;;1.40;;
16177;SDS011;8195;51.220;9.746;2023-04-03T09:34:32;2.07;;;1.50;;
16177;SDS011;8195;51.220;9.746;2023-04-03T09:44:57;2.53;;;1.40;;
16177;SDS011;8195;51.220;9.746;2023-04-03T09:55:26;1.53;;;1.17;;
16177;SDS011;8195;51.220;9.746;2023-04-03T10:05:59;3.60;;;1.50;;
16177;SDS011;8195;51.220;9.746;2023-04-03T10:38:55;2.87;;;1.20;;
16177;SDS011;8195;51.220;9.746;2023-04-03T10:59:48;1.30;;;1.20;;
16177;SDS011;8195;51.220;9.746;2023-04-03T11:10:44;2.70;;;1.50;;
16177;SDS011;8195;51.220;9.746;2023-04-03T11:21:12;1.70;;;1.30;;
16177;SDS011;8195;51.220;9.746;2023-04-03T11:31:54;1.50;;;1.30;;
16177;SDS011;8195;51.220;9.746;2023-04-03T11:43:16;2.53;;;1.50;;
16177;SDS011;8195;51.220;9.746;2023-04-03T11:53:43;2.37;;;1.40;;
16177;SDS011;8195;51.220;9.746;2023-04-03T12:04:06;2.63;;;1.70;;
16177;SDS011;8195;51.220;9.746;2023-04-03T12:14:32;2.47;;;1.80;;
16177;SDS011;8195;51.220;9.746;2023-04-03T12:24:54;4.03;;;1.70;;
16177;SDS011;8195;51.220;9.746;2023-04-03T12:56:28;3.40;;;2.00;;
16177;SDS011;8195;51.220;9.746;2023-04-03T13:06:51;3.40;;;2.07;;
16177;SDS011;8195;51.220;9.746;2023-04-03T13:17:13;2.60;;;2.10;;
16177;SDS011;8195;51.220;9.746;2023-04-03T13:27:36;4.30;;;2.13;;
16177;SDS011;8195;51.220;9.746;2023-04-03T13:38:00;2.23;;;2.03;;
16177;SDS011;8195;51.220;9.746;2023-04-03T13:48:25;3.83;;;1.83;;
16177;SDS011;8195;51.220;9.746;2023-04-03T13:59:02;2.73;;;2.10;;
16177;SDS011;8195;51.220;9.746;2023-04-03T14:09:41;1.60;;;1.43;;
16177;SDS011;8195;51.220;9.746;2023-04-03T14:20:02;2.77;;;2.20;;
16177;SDS011;8195;51.220;9.746;2023-04-03T14:30:29;2.27;;;1.87;;
16177;SDS011;8195;51.220;9.746;2023-04-03T14:40:52;3.00;;;1.70;;
16177;SDS011;8195;51.220;9.746;2023-04-03T14:51:14;2.53;;;1.80;;
16177;SDS011;8195;51.220;9.746;2023-04-03T15:01:36;4.70;;;2.10;;
16177;SDS011;8195;51.220;9.746;2023-04-03T15:11:57;2.13;;;1.70;;
16177;SDS011;8195;51.220;9.746;2023-04-03T15:22:18;3.40;;;1.80;;
16177;SDS011;8195;51.220;9.746;2023-04-03T15:32:40;4.97;;;2.27;;
16177;SDS011;8195;51.220;9.746;2023-04-03T15:43:01;4.10;;;1.70;;
16177;SDS011;8195;51.220;9.746;2023-04-03T15:53:22;2.23;;;1.70;;
16177;SDS011;8195;51.220;9.746;2023-04-03T16:03:43;2.63;;;1.90;;
16177;SDS011;8195;51.220;9.746;2023-04-03T16:14:06;2.23;;;1.47;;
16177;SDS011;8195;51.220;9.746;2023-04-03T16:24:27;2.27;;;2.07;;
16177;SDS011;8195;51.220;9.746;2023-04-03T16:34:49;2.00;;;1.80;;
16177;SDS011;8195;51.220;9.746;2023-04-03T16:45:10;1.60;;;1.50;;
16177;SDS011;8195;51.220;9.746;2023-04-03T16:55:31;3.87;;;1.77;;
16177;SDS011;8195;51.220;9.746;2023-04-03T17:05:52;4.57;;;2.23;;
16177;SDS011;8195;51.220;9.746;2023-04-03T17:16:16;2.63;;;2.03;;
16177;SDS011;8195;51.220;9.746;2023-04-03T17:26:38;2.97;;;1.70;;
16177;SDS011;8195;51.220;9.746;2023-04-03T17:37:00;3.30;;;2.00;;
16177;SDS011;8195;51.220;9.746;2023-04-03T17:47:27;2.83;;;1.80;;
16177;SDS011;8195;51.220;9.746;2023-04-03T17:57:49;2.53;;;1.50;;
16177;SDS011;8195;51.220;9.746;2023-04-03T18:08:10;2.80;;;2.00;;
16177;SDS011;8195;51.220;9.746;2023-04-03T18:18:31;1.60;;;1.50;;
16177;SDS011;8195;51.220;9.746;2023-04-03T18:29:10;3.33;;;2.00;;
16177;SDS011;8195;51.220;9.746;2023-04-03T18:39:31;3.33;;;2.23;;
16177;SDS011;8195;51.220;9.746;2023-04-03T18:49:53;2.70;;;1.70;;
16177;SDS011;8195;51.220;9.746;2023-04-03T19:00:16;1.90;;;1.70;;
16177;SDS011;8195;51.220;9.746;2023-04-03T19:10:38;3.30;;;2.03;;
16177;SDS011;8195;51.220;9.746;2023-04-03T19:20:59;1.93;;;1.80;;
16177;SDS011;8195;51.220;9.746;2023-04-03T19:31:20;2.37;;;2.03;;
16177;SDS011;8195;51.220;9.746;2023-04-03T19:41:42;2.47;;;1.70;;
16177;SDS011;8195;51.220;9.746;2023-04-03T19:52:03;2.73;;;2.00;;
16177;SDS011;8195;51.220;9.746;2023-04-03T20:02:24;2.53;;;1.57;;
16177;SDS011;8195;51.220;9.746;2023-04-03T20:12:45;2.20;;;1.97;;
16177;SDS011;8195;51.220;9.746;2023-04-03T20:23:07;1.90;;;1.60;;
16177;SDS011;8195;51.220;9.746;2023-04-03T20:33:29;1.90;;;1.70;;
16177;SDS011;8195;51.220;9.746;2023-04-03T20:43:50;2.87;;;2.00;;
16177;SDS011;8195;51.220;9.746;2023-04-03T20:54:11;2.87;;;1.80;;
16177;SDS011;8195;51.220;9.746;2023-04-03T21:04:35;3.27;;;2.00;;
16177;SDS011;8195;51.220;9.746;2023-04-03T21:26:01;2.97;;;2.30;;
16177;SDS011;8195;51.220;9.746;2023-04-03T21:36:22;2.83;;;2.10;;
16177;SDS011;8195;51.220;9.746;2023-04-03T21:46:43;2.50;;;2.27;;
16177;SDS011;8195;51.220;9.746;2023-04-03T21:57:05;2.43;;;2.23;;
16177;SDS011;8195;51.220;9.746;2023-04-03T22:07:26;2.30;;;2.10;;
16177;SDS011;8195;51.220;9.746;2023-04-03T22:17:47;2.03;;;1.90;;
16177;SDS011;8195;51.220;9.746;2023-04-03T22:28:08;6.23;;;2.80;;
16177;SDS011;8195;51.220;9.746;2023-04-03T22:38:29;3.27;;;2.23;;
16177;SDS011;8195;51.220;9.746;2023-04-03T22:48:50;2.43;;;2.23;;
16177;SDS011;8195;51.220;9.746;2023-04-03T22:59:14;2.30;;;2.10;;
16177;SDS011;8195;51.220;9.746;2023-04-03T23:09:35;2.17;;;1.97;;
16177;SDS011;8195;51.220;9.746;2023-04-03T23:19:56;3.10;;;1.87;;
16177;SDS011;8195;51.220;9.746;2023-04-03T23:30:17;2.93;;;1.87;;
16177;SDS011;8195;51.220;9.746;2023-04-03T23:40:37;3.67;;;1.70;;
16177;SDS011;8195;51.220;9.746;2023-04-03T23:51:00;3.43;;;1.70;;
